sensor_id;sensor_type;location;lat;lon;timestamp;temperature;humidity
9482;DHT22;4779;48.062;11.672;2023-04-24T00:01:23;10.80;99.90
9482;DHT22;4779;48.062;11.672;2023-04-24T00:03:50;10.80;99.90
9482;DHT22;4779;48.062;11.672;2023-04-24T00:06:17;10.80;99.90
9482;DHT22;4779;48.062;11.672;2023-04-24T00:08:44;10.80;99.90
9482;DHT22;4779;48.062;11.672;2023-04-24T00:11:11;10.70;99.90
9482;DHT22;4779;48.062;11.672;2023-04-24T00:13:39;10.80;99.90
9482;DHT22;4779;48.062;11.672;2023-04-24T00:16:06;10.70;99.90
9482;DHT22;4779;48.062;11.672;2023-04-24T00:18:33;10.60;99.90
9482;DHT22;4779;48.062;11.672;2023-04-24T00:21:00;10.60;99.90
9482;DHT22;4779;48.062;11.672;2023-04-24T00:23:27;10.70;99.90
9482;DHT22;4779;48.062;11.672;2023-04-24T00:25:53;10.70;99.90
9482;DHT22;4779;48.062;11.672;2023-04-24T00:28:20;10.80;99.90
9482;DHT22;4779;48.062;11.672;2023-04-24T00:30:48;10.80;99.90
9482;DHT22;4779;48.062;11.672;2023-04-24T00:33:15;10.70;99.90
9482;DHT22;4779;48.062;11.672;2023-04-24T00:35:42;10.70;99.90
9482;DHT22;4779;48.062;11.672;2023-04-24T00:38:09;10.70;99.90
9482;DHT22;4779;48.062;11.672;2023-04-24T00:40:36;10.70;99.90
9482;DHT22;4779;48.062;11.672;2023-04-24T00:43:03;10.70;99.90
9482;DHT22;4779;48.062;11.672;2023-04-24T00:45:30;10.70;99.90
9482;DHT22;4779;48.062;11.672;2023-04-24T00:47:59;10.70;99.90
9482;DHT22;4779;48.062;11.672;2023-04-24T00:50:27;10.70;99.90
9482;DHT22;4779;48.062;11.672;2023-04-24T00:52:55;10.70;99.90
9482;DHT22;4779;48.062;11.672;2023-04-24T00:55:22;10.70;99.90
9482;DHT22;4779;48.062;11.672;2023-04-24T00:57:49;10.70;99.90
9482;DHT22;4779;48.062;11.672;2023-04-24T01:00:16;10.70;99.90
9482;DHT22;4779;48.062;11.672;2023-04-24T01:02:44;10.70;99.90
9482;DHT22;4779;48.062;11.672;2023-04-24T01:05:14;10.70;99.90
9482;DHT22;4779;48.062;11.672;2023-04-24T01:07:44;10.60;99.90
9482;DHT22;4779;48.062;11.672;2023-04-24T01:10:14;10.60;99.90
9482;DHT22;4779;48.062;11.672;2023-04-24T01:12:41;10.40;99.90
9482;DHT22;4779;48.062;11.672;2023-04-24T01:15:09;10.30;99.90
9482;DHT22;4779;48.062;11.672;2023-04-24T01:17:36;10.30;99.90
9482;DHT22;4779;48.062;11.672;2023-04-24T01:20:04;10.30;99.90
9482;DHT22;4779;48.062;11.672;2023-04-24T01:22:34;10.20;99.90
9482;DHT22;4779;48.062;11.672;2023-04-24T01:25:01;10.20;99.90
9482;DHT22;4779;48.062;11.672;2023-04-24T01:27:29;10.20;99.90
9482;DHT22;4779;48.062;11.672;2023-04-24T01:29:55;10.20;99.90
9482;DHT22;4779;48.062;11.672;2023-04-24T02:00:53;10.20;99.90
9482;DHT22;4779;48.062;11.672;2023-04-24T02:03:22;10.20;99.90
9482;DHT22;4779;48.062;11.672;2023-04-24T02:05:49;10.20;99.90
9482;DHT22;4779;48.062;11.672;2023-04-24T02:08:16;10.20;99.90
9482;DHT22;4779;48.062;11.672;2023-04-24T02:10:42;10.10;99.90
9482;DHT22;4779;48.062;11.672;2023-04-24T02:13:09;10.10;99.90
9482;DHT22;4779;48.062;11.672;2023-04-24T02:15:36;10.00;99.90
9482;DHT22;4779;48.062;11.672;2023-04-24T02:20:39;10.10;99.90
9482;DHT22;4779;48.062;11.672;2023-04-24T02:23:06;10.10;99.90
9482;DHT22;4779;48.062;11.672;2023-04-24T02:25:33;10.10;99.90
9482;DHT22;4779;48.062;11.672;2023-04-24T02:28:00;10.10;99.90
9482;DHT22;4779;48.062;11.672;2023-04-24T02:30:27;10.10;99.90
9482;DHT22;4779;48.062;11.672;2023-04-24T02:32:54;10.10;99.90
9482;DHT22;4779;48.062;11.672;2023-04-24T02:35:22;10.10;99.90
9482;DHT22;4779;48.062;11.672;2023-04-24T02:37:50;10.00;99.90
9482;DHT22;4779;48.062;11.672;2023-04-24T02:40:17;10.00;99.90
9482;DHT22;4779;48.062;11.672;2023-04-24T02:42:44;9.90;99.90
9482;DHT22;4779;48.062;11.672;2023-04-24T02:45:11;9.90;99.90
9482;DHT22;4779;48.062;11.672;2023-04-24T02:47:38;9.90;99.90
9482;DHT22;4779;48.062;11.672;2023-04-24T02:50:06;9.80;99.90
9482;DHT22;4779;48.062;11.672;2023-04-24T02:52:33;9.70;99.90
9482;DHT22;4779;48.062;11.672;2023-04-24T02:55:02;9.70;99.90
9482;DHT22;4779;48.062;11.672;2023-04-24T02:57:29;9.70;99.90
9482;DHT22;4779;48.062;11.672;2023-04-24T02:59:56;9.70;99.90
9482;DHT22;4779;48.062;11.672;2023-04-24T03:02:22;9.80;99.90
9482;DHT22;4779;48.062;11.672;2023-04-24T03:04:49;9.80;99.90
9482;DHT22;4779;48.062;11.672;2023-04-24T03:07:16;9.80;99.90
9482;DHT22;4779;48.062;11.672;2023-04-24T03:09:46;9.80;99.90
9482;DHT22;4779;48.062;11.672;2023-04-24T03:12:14;9.80;99.90
9482;DHT22;4779;48.062;11.672;2023-04-24T03:14:43;9.80;99.90
9482;DHT22;4779;48.062;11.672;2023-04-24T03:17:10;9.70;99.90
9482;DHT22;4779;48.062;11.672;2023-04-24T03:19:37;9.60;99.90
9482;DHT22;4779;48.062;11.672;2023-04-24T03:22:04;9.50;99.90
9482;DHT22;4779;48.062;11.672;2023-04-24T03:24:31;9.50;99.90
9482;DHT22;4779;48.062;11.672;2023-04-24T03:26:58;9.50;99.90
9482;DHT22;4779;48.062;11.672;2023-04-24T03:29:27;9.50;99.90
9482;DHT22;4779;48.062;11.672;2023-04-24T03:31:53;9.50;99.90
9482;DHT22;4779;48.062;11.672;2023-04-24T03:34:20;9.40;99.90
9482;DHT22;4779;48.062;11.672;2023-04-24T03:36:47;9.40;99.90
9482;DHT22;4779;48.062;11.672;2023-04-24T03:39:14;9.50;99.90
9482;DHT22;4779;48.062;11.672;2023-04-24T03:41:41;9.50;99.90
9482;DHT22;4779;48.062;11.672;2023-04-24T03:44:08;9.60;99.90
9482;DHT22;4779;48.062;11.672;2023-04-24T03:46:36;9.60;99.90
9482;DHT22;4779;48.062;11.672;2023-04-24T03:49:03;9.60;99.90
9482;DHT22;4779;48.062;11.672;2023-04-24T03:51:30;9.50;99.90
9482;DHT22;4779;48.062;11.672;2023-04-24T03:53:57;9.50;99.90
9482;DHT22;4779;48.062;11.672;2023-04-24T03:56:24;9.50;99.90
9482;DHT22;4779;48.062;11.672;2023-04-24T03:58:51;9.60;99.90
9482;DHT22;4779;48.062;11.672;2023-04-24T04:01:18;9.60;99.90
9482;DHT22;4779;48.062;11.672;2023-04-24T04:03:47;9.50;99.90
9482;DHT22;4779;48.062;11.672;2023-04-24T04:06:14;9.60;99.90
9482;DHT22;4779;48.062;11.672;2023-04-24T04:08:41;9.60;99.90
9482;DHT22;4779;48.062;11.672;2023-04-24T04:11:08;9.70;99.90
9482;DHT22;4779;48.062;11.672;2023-04-24T04:13:35;9.70;99.90
9482;DHT22;4779;48.062;11.672;2023-04-24T04:16:02;9.70;99.90
9482;DHT22;4779;48.062;11.672;2023-04-24T04:18:29;9.60;99.90
9482;DHT22;4779;48.062;11.672;2023-04-24T04:20:57;9.50;99.90
9482;DHT22;4779;48.062;11.672;2023-04-24T04:23:24;9.50;99.90
9482;DHT22;4779;48.062;11.672;2023-04-24T04:25:51;9.40;99.90
9482;DHT22;4779;48.062;11.672;2023-04-24T04:28:18;9.40;99.90
9482;DHT22;4779;48.062;11.672;2023-04-24T04:30:46;9.40;99.90
9482;DHT22;4779;48.062;11.672;2023-04-24T04:33:13;9.50;99.90
9482;DHT22;4779;48.062;11.672;2023-04-24T04:35:40;9.50;99.90
9482;DHT22;4779;48.062;11.672;2023-04-24T04:38:09;9.40;99.90
9482;DHT22;4779;48.062;11.672;2023-04-24T04:40:36;9.50;99.90
9482;DHT22;4779;48.062;11.672;2023-04-24T04:43:03;9.40;99.90
9482;DHT22;4779;48.062;11.672;2023-04-24T04:45:30;9.30;99.90
9482;DHT22;4779;48.062;11.672;2023-04-24T04:47:58;9.30;99.90
9482;DHT22;4779;48.062;11.672;2023-04-24T04:50:26;9.30;99.90
9482;DHT22;4779;48.062;11.672;2023-04-24T04:52:53;9.40;99.90
9482;DHT22;4779;48.062;11.672;2023-04-24T04:55:21;9.40;99.90
9482;DHT22;4779;48.062;11.672;2023-04-24T04:57:48;9.40;99.90
9482;DHT22;4779;48.062;11.672;2023-04-24T05:00:15;9.50;99.90
9482;DHT22;4779;48.062;11.672;2023-04-24T05:02:42;9.40;99.90
9482;DHT22;4779;48.062;11.672;2023-04-24T05:05:10;9.40;99.90
9482;DHT22;4779;48.062;11.672;2023-04-24T05:07:36;9.50;99.90
9482;DHT22;4779;48.062;11.672;2023-04-24T05:10:04;9.60;99.90
9482;DHT22;4779;48.062;11.672;2023-04-24T05:12:33;9.60;99.90
9482;DHT22;4779;48.062;11.672;2023-04-24T05:15:00;9.60;99.90
9482;DHT22;4779;48.062;11.672;2023-04-24T05:17:26;9.60;99.90
9482;DHT22;4779;48.062;11.672;2023-04-24T05:19:53;9.60;99.90
9482;DHT22;4779;48.062;11.672;2023-04-24T05:22:20;9.60;99.90
9482;DHT22;4779;48.062;11.672;2023-04-24T05:24:48;9.50;99.90
9482;DHT22;4779;48.062;11.672;2023-04-24T05:27:14;9.50;99.90
9482;DHT22;4779;48.062;11.672;2023-04-24T05:29:43;9.60;99.90
9482;DHT22;4779;48.062;11.672;2023-04-24T05:32:10;9.60;99.90
9482;DHT22;4779;48.062;11.672;2023-04-24T05:34:37;9.50;99.90
9482;DHT22;4779;48.062;11.672;2023-04-24T05:37:04;9.60;99.90
9482;DHT22;4779;48.062;11.672;2023-04-24T05:39:33;9.70;99.90
9482;DHT22;4779;48.062;11.672;2023-04-24T05:42:01;9.70;99.90
9482;DHT22;4779;48.062;11.672;2023-04-24T05:44:28;9.60;99.90
9482;DHT22;4779;48.062;11.672;2023-04-24T05:46:57;9.70;99.90
9482;DHT22;4779;48.062;11.672;2023-04-24T05:49:24;9.70;99.90
9482;DHT22;4779;48.062;11.672;2023-04-24T05:51:51;9.70;99.90
9482;DHT22;4779;48.062;11.672;2023-04-24T05:54:17;9.80;99.90
9482;DHT22;4779;48.062;11.672;2023-04-24T05:56:44;9.70;99.90
9482;DHT22;4779;48.062;11.672;2023-04-24T05:59:15;9.80;99.90
9482;DHT22;4779;48.062;11.672;2023-04-24T06:01:45;9.80;99.90
9482;DHT22;4779;48.062;11.672;2023-04-24T06:04:13;9.80;99.90
9482;DHT22;4779;48.062;11.672;2023-04-24T06:06:41;9.80;99.90
9482;DHT22;4779;48.062;11.672;2023-04-24T06:09:10;9.90;99.90
9482;DHT22;4779;48.062;11.672;2023-04-24T06:11:37;9.90;99.90
9482;DHT22;4779;48.062;11.672;2023-04-24T06:14:04;10.10;99.90
9482;DHT22;4779;48.062;11.672;2023-04-24T06:16:31;10.10;99.90
9482;DHT22;4779;48.062;11.672;2023-04-24T06:18:58;10.10;99.90
9482;DHT22;4779;48.062;11.672;2023-04-24T06:21:26;10.10;99.90
9482;DHT22;4779;48.062;11.672;2023-04-24T06:23:54;10.10;99.90
9482;DHT22;4779;48.062;11.672;2023-04-24T06:26:21;10.10;99.90
9482;DHT22;4779;48.062;11.672;2023-04-24T06:28:50;10.10;99.90
9482;DHT22;4779;48.062;11.672;2023-04-24T06:31:17;10.10;99.90
9482;DHT22;4779;48.062;11.672;2023-04-24T06:33:44;10.10;99.90
9482;DHT22;4779;48.062;11.672;2023-04-24T06:36:11;10.10;99.90
9482;DHT22;4779;48.062;11.672;2023-04-24T06:38:39;10.10;99.90
9482;DHT22;4779;48.062;11.672;2023-04-24T06:41:06;10.10;99.90
9482;DHT22;4779;48.062;11.672;2023-04-24T06:43:33;10.20;99.90
9482;DHT22;4779;48.062;11.672;2023-04-24T06:46:00;10.20;99.90
9482;DHT22;4779;48.062;11.672;2023-04-24T06:48:29;10.30;99.90
9482;DHT22;4779;48.062;11.672;2023-04-24T06:50:55;10.40;99.90
9482;DHT22;4779;48.062;11.672;2023-04-24T06:53:22;10.50;99.90
9482;DHT22;4779;48.062;11.672;2023-04-24T06:55:51;10.60;99.90
9482;DHT22;4779;48.062;11.672;2023-04-24T06:58:17;10.70;99.90
9482;DHT22;4779;48.062;11.672;2023-04-24T07:00:44;10.70;99.90
9482;DHT22;4779;48.062;11.672;2023-04-24T07:03:11;10.80;99.90
9482;DHT22;4779;48.062;11.672;2023-04-24T07:05:38;10.90;99.90
9482;DHT22;4779;48.062;11.672;2023-04-24T07:08:05;11.00;99.90
9482;DHT22;4779;48.062;11.672;2023-04-24T07:10:34;11.00;99.90
9482;DHT22;4779;48.062;11.672;2023-04-24T07:13:03;11.00;99.90
9482;DHT22;4779;48.062;11.672;2023-04-24T07:15:30;11.00;99.90
9482;DHT22;4779;48.062;11.672;2023-04-24T07:17:57;11.20;99.90
9482;DHT22;4779;48.062;11.672;2023-04-24T07:20:25;11.30;99.90
9482;DHT22;4779;48.062;11.672;2023-04-24T07:22:51;11.40;99.90
9482;DHT22;4779;48.062;11.672;2023-04-24T07:25:19;11.50;99.90
9482;DHT22;4779;48.062;11.672;2023-04-24T07:27:46;11.60;99.90
9482;DHT22;4779;48.062;11.672;2023-04-24T07:30:16;11.80;99.90
9482;DHT22;4779;48.062;11.672;2023-04-24T07:32:42;12.00;99.90
9482;DHT22;4779;48.062;11.672;2023-04-24T07:35:10;12.10;99.90
9482;DHT22;4779;48.062;11.672;2023-04-24T07:37:37;12.10;99.90
9482;DHT22;4779;48.062;11.672;2023-04-24T07:40:04;12.10;99.90
9482;DHT22;4779;48.062;11.672;2023-04-24T07:42:31;12.20;99.90
9482;DHT22;4779;48.062;11.672;2023-04-24T07:45:00;12.20;99.90
9482;DHT22;4779;48.062;11.672;2023-04-24T07:47:28;12.10;99.90
9482;DHT22;4779;48.062;11.672;2023-04-24T07:49:55;12.00;99.90
9482;DHT22;4779;48.062;11.672;2023-04-24T07:52:22;11.70;99.90
9482;DHT22;4779;48.062;11.672;2023-04-24T07:54:49;11.60;99.90
9482;DHT22;4779;48.062;11.672;2023-04-24T07:57:18;11.50;99.90
9482;DHT22;4779;48.062;11.672;2023-04-24T07:59:45;11.50;99.90
9482;DHT22;4779;48.062;11.672;2023-04-24T08:02:12;11.50;99.90
9482;DHT22;4779;48.062;11.672;2023-04-24T08:04:41;11.40;99.90
9482;DHT22;4779;48.062;11.672;2023-04-24T08:07:08;11.30;99.90
9482;DHT22;4779;48.062;11.672;2023-04-24T08:09:35;11.20;99.90
9482;DHT22;4779;48.062;11.672;2023-04-24T08:12:02;11.30;99.90
9482;DHT22;4779;48.062;11.672;2023-04-24T08:14:29;11.20;99.90
9482;DHT22;4779;48.062;11.672;2023-04-24T08:16:56;11.20;99.90
9482;DHT22;4779;48.062;11.672;2023-04-24T08:19:25;11.10;99.90
9482;DHT22;4779;48.062;11.672;2023-04-24T08:21:53;11.10;99.90
9482;DHT22;4779;48.062;11.672;2023-04-24T08:24:20;11.20;99.90
9482;DHT22;4779;48.062;11.672;2023-04-24T08:26:47;11.30;99.90
9482;DHT22;4779;48.062;11.672;2023-04-24T08:29:15;11.40;99.90
9482;DHT22;4779;48.062;11.672;2023-04-24T08:31:42;11.40;99.90
9482;DHT22;4779;48.062;11.672;2023-04-24T08:34:10;11.40;99.90
9482;DHT22;4779;48.062;11.672;2023-04-24T08:36:37;11.30;99.90
9482;DHT22;4779;48.062;11.672;2023-04-24T08:39:07;11.30;99.90
9482;DHT22;4779;48.062;11.672;2023-04-24T08:41:34;11.30;99.90
9482;DHT22;4779;48.062;11.672;2023-04-24T08:44:02;11.40;99.90
9482;DHT22;4779;48.062;11.672;2023-04-24T08:46:30;11.50;99.90
9482;DHT22;4779;48.062;11.672;2023-04-24T08:48:57;11.30;99.90
9482;DHT22;4779;48.062;11.672;2023-04-24T08:51:26;11.20;99.90
9482;DHT22;4779;48.062;11.672;2023-04-24T08:53:54;10.80;99.90
9482;DHT22;4779;48.062;11.672;2023-04-24T08:56:23;10.80;99.90
9482;DHT22;4779;48.062;11.672;2023-04-24T08:58:51;10.90;99.90
9482;DHT22;4779;48.062;11.672;2023-04-24T09:01:19;11.10;99.90
9482;DHT22;4779;48.062;11.672;2023-04-24T09:03:48;11.30;99.90
9482;DHT22;4779;48.062;11.672;2023-04-24T09:06:16;11.40;99.90
9482;DHT22;4779;48.062;11.672;2023-04-24T09:08:44;11.30;99.90
9482;DHT22;4779;48.062;11.672;2023-04-24T09:11:12;11.20;99.90
9482;DHT22;4779;48.062;11.672;2023-04-24T09:13:40;11.10;99.90
9482;DHT22;4779;48.062;11.672;2023-04-24T09:16:07;11.10;99.90
9482;DHT22;4779;48.062;11.672;2023-04-24T09:18:34;11.20;99.90
9482;DHT22;4779;48.062;11.672;2023-04-24T09:21:03;11.40;99.90
9482;DHT22;4779;48.062;11.672;2023-04-24T09:23:31;11.50;99.90
9482;DHT22;4779;48.062;11.672;2023-04-24T09:25:59;11.50;99.90
9482;DHT22;4779;48.062;11.672;2023-04-24T09:28:29;11.50;99.90
9482;DHT22;4779;48.062;11.672;2023-04-24T09:31:05;11.40;99.90
9482;DHT22;4779;48.062;11.672;2023-04-24T09:33:32;11.30;99.90
9482;DHT22;4779;48.062;11.672;2023-04-24T09:36:00;11.40;99.90
9482;DHT22;4779;48.062;11.672;2023-04-24T09:38:31;11.50;99.90
9482;DHT22;4779;48.062;11.672;2023-04-24T09:41:00;11.70;99.90
9482;DHT22;4779;48.062;11.672;2023-04-24T09:43:28;12.00;99.90
9482;DHT22;4779;48.062;11.672;2023-04-24T09:45:56;12.30;99.90
9482;DHT22;4779;48.062;11.672;2023-04-24T09:48:32;12.40;99.90
9482;DHT22;4779;48.062;11.672;2023-04-24T09:50:59;12.70;99.90
9482;DHT22;4779;48.062;11.672;2023-04-24T09:53:27;13.00;99.90
9482;DHT22;4779;48.062;11.672;2023-04-24T09:55:54;13.20;99.90
9482;DHT22;4779;48.062;11.672;2023-04-24T09:58:25;13.20;99.90
9482;DHT22;4779;48.062;11.672;2023-04-24T10:00:53;13.00;99.90
9482;DHT22;4779;48.062;11.672;2023-04-24T10:03:24;13.10;99.90
9482;DHT22;4779;48.062;11.672;2023-04-24T10:05:53;13.00;99.90
9482;DHT22;4779;48.062;11.672;2023-04-24T10:08:21;13.00;99.90
9482;DHT22;4779;48.062;11.672;2023-04-24T10:10:48;13.10;99.90
9482;DHT22;4779;48.062;11.672;2023-04-24T10:13:15;13.10;99.90
9482;DHT22;4779;48.062;11.672;2023-04-24T10:15:44;13.20;99.90
9482;DHT22;4779;48.062;11.672;2023-04-24T10:18:20;13.30;99.90
9482;DHT22;4779;48.062;11.672;2023-04-24T10:20:47;13.20;99.90
9482;DHT22;4779;48.062;11.672;2023-04-24T10:23:16;13.30;99.90
9482;DHT22;4779;48.062;11.672;2023-04-24T10:25:45;13.40;99.90
9482;DHT22;4779;48.062;11.672;2023-04-24T10:28:12;13.60;99.90
9482;DHT22;4779;48.062;11.672;2023-04-24T10:30:42;13.70;99.90
9482;DHT22;4779;48.062;11.672;2023-04-24T10:33:09;13.90;99.90
9482;DHT22;4779;48.062;11.672;2023-04-24T10:35:40;14.00;99.90
9482;DHT22;4779;48.062;11.672;2023-04-24T10:38:10;14.00;99.90
9482;DHT22;4779;48.062;11.672;2023-04-24T10:40:40;14.20;99.90
9482;DHT22;4779;48.062;11.672;2023-04-24T10:43:07;14.20;99.90
9482;DHT22;4779;48.062;11.672;2023-04-24T10:45:36;14.20;99.90
9482;DHT22;4779;48.062;11.672;2023-04-24T10:48:05;14.10;99.90
9482;DHT22;4779;48.062;11.672;2023-04-24T10:50:44;14.00;99.90
9482;DHT22;4779;48.062;11.672;2023-04-24T10:53:16;13.60;99.90
9482;DHT22;4779;48.062;11.672;2023-04-24T10:55:46;13.30;99.90
9482;DHT22;4779;48.062;11.672;2023-04-24T10:58:14;13.10;99.90
9482;DHT22;4779;48.062;11.672;2023-04-24T11:00:43;13.00;99.90
9482;DHT22;4779;48.062;11.672;2023-04-24T11:03:24;12.70;99.90
9482;DHT22;4779;48.062;11.672;2023-04-24T11:05:54;12.00;99.90
9482;DHT22;4779;48.062;11.672;2023-04-24T11:08:23;11.60;99.90
9482;DHT22;4779;48.062;11.672;2023-04-24T11:11:01;11.20;99.90
9482;DHT22;4779;48.062;11.672;2023-04-24T11:14:09;11.10;99.90
9482;DHT22;4779;48.062;11.672;2023-04-24T11:16:42;10.90;99.90
9482;DHT22;4779;48.062;11.672;2023-04-24T11:19:18;11.00;99.90
9482;DHT22;4779;48.062;11.672;2023-04-24T11:21:47;11.50;99.90
9482;DHT22;4779;48.062;11.672;2023-04-24T11:24:25;12.00;99.90
9482;DHT22;4779;48.062;11.672;2023-04-24T11:26:54;12.70;99.90
9482;DHT22;4779;48.062;11.672;2023-04-24T11:29:22;13.50;99.90
9482;DHT22;4779;48.062;11.672;2023-04-24T11:31:49;14.10;99.90
9482;DHT22;4779;48.062;11.672;2023-04-24T11:34:18;14.60;99.90
9482;DHT22;4779;48.062;11.672;2023-04-24T11:36:45;14.60;99.90
9482;DHT22;4779;48.062;11.672;2023-04-24T11:39:13;14.60;99.90
9482;DHT22;4779;48.062;11.672;2023-04-24T11:41:40;14.50;99.90
9482;DHT22;4779;48.062;11.672;2023-04-24T11:44:09;14.60;99.90
9482;DHT22;4779;48.062;11.672;2023-04-24T11:46:36;14.80;99.90
9482;DHT22;4779;48.062;11.672;2023-04-24T11:49:05;14.70;99.90
9482;DHT22;4779;48.062;11.672;2023-04-24T11:51:32;14.60;99.90
9482;DHT22;4779;48.062;11.672;2023-04-24T11:54:00;15.00;99.90
9482;DHT22;4779;48.062;11.672;2023-04-24T11:56:28;15.30;99.90
9482;DHT22;4779;48.062;11.672;2023-04-24T11:58:56;15.50;99.90
9482;DHT22;4779;48.062;11.672;2023-04-24T12:01:24;15.20;99.90
9482;DHT22;4779;48.062;11.672;2023-04-24T12:03:51;15.00;99.90
9482;DHT22;4779;48.062;11.672;2023-04-24T12:06:25;14.70;99.90
9482;DHT22;4779;48.062;11.672;2023-04-24T12:08:52;14.40;99.90
9482;DHT22;4779;48.062;11.672;2023-04-24T12:11:20;14.10;99.90
9482;DHT22;4779;48.062;11.672;2023-04-24T12:13:47;13.80;99.90
9482;DHT22;4779;48.062;11.672;2023-04-24T12:16:14;13.60;99.90
9482;DHT22;4779;48.062;11.672;2023-04-24T12:18:43;13.20;99.90
9482;DHT22;4779;48.062;11.672;2023-04-24T12:21:18;12.80;99.90
9482;DHT22;4779;48.062;11.672;2023-04-24T12:23:45;12.30;99.90
9482;DHT22;4779;48.062;11.672;2023-04-24T12:26:16;11.70;99.90
9482;DHT22;4779;48.062;11.672;2023-04-24T12:28:46;11.20;99.90
9482;DHT22;4779;48.062;11.672;2023-04-24T12:31:13;11.00;99.90
9482;DHT22;4779;48.062;11.672;2023-04-24T12:33:40;10.80;99.90
9482;DHT22;4779;48.062;11.672;2023-04-24T12:36:11;10.80;99.90
9482;DHT22;4779;48.062;11.672;2023-04-24T12:38:39;10.80;99.90
9482;DHT22;4779;48.062;11.672;2023-04-24T12:41:11;10.80;99.90
9482;DHT22;4779;48.062;11.672;2023-04-24T12:43:38;11.10;99.90
9482;DHT22;4779;48.062;11.672;2023-04-24T12:46:05;11.50;99.90
9482;DHT22;4779;48.062;11.672;2023-04-24T12:48:32;11.80;99.90
9482;DHT22;4779;48.062;11.672;2023-04-24T12:50:59;11.80;99.90
9482;DHT22;4779;48.062;11.672;2023-04-24T12:53:28;11.70;99.90
9482;DHT22;4779;48.062;11.672;2023-04-24T12:55:56;11.60;99.90
9482;DHT22;4779;48.062;11.672;2023-04-24T12:58:23;11.40;99.90
9482;DHT22;4779;48.062;11.672;2023-04-24T13:00:50;11.00;99.90
9482;DHT22;4779;48.062;11.672;2023-04-24T13:03:18;10.70;99.90
9482;DHT22;4779;48.062;11.672;2023-04-24T13:05:45;10.50;99.90
9482;DHT22;4779;48.062;11.672;2023-04-24T13:08:12;10.40;99.90
9482;DHT22;4779;48.062;11.672;2023-04-24T13:10:40;10.30;99.90
9482;DHT22;4779;48.062;11.672;2023-04-24T13:13:08;10.40;99.90
9482;DHT22;4779;48.062;11.672;2023-04-24T13:15:35;10.50;99.90
9482;DHT22;4779;48.062;11.672;2023-04-24T13:18:02;10.70;99.90
9482;DHT22;4779;48.062;11.672;2023-04-24T13:20:29;10.80;99.90
9482;DHT22;4779;48.062;11.672;2023-04-24T13:22:56;11.10;99.90
9482;DHT22;4779;48.062;11.672;2023-04-24T13:25:23;11.40;99.90
9482;DHT22;4779;48.062;11.672;2023-04-24T13:27:52;12.20;99.90
9482;DHT22;4779;48.062;11.672;2023-04-24T13:30:19;12.60;99.90
9482;DHT22;4779;48.062;11.672;2023-04-24T13:32:46;13.00;99.90
9482;DHT22;4779;48.062;11.672;2023-04-24T13:35:13;13.10;99.90
9482;DHT22;4779;48.062;11.672;2023-04-24T13:37:40;13.20;99.90
9482;DHT22;4779;48.062;11.672;2023-04-24T13:40:07;13.10;99.90
9482;DHT22;4779;48.062;11.672;2023-04-24T13:42:35;13.10;99.90
9482;DHT22;4779;48.062;11.672;2023-04-24T13:45:04;13.10;99.90
9482;DHT22;4779;48.062;11.672;2023-04-24T13:47:31;12.90;99.90
9482;DHT22;4779;48.062;11.672;2023-04-24T13:49:57;12.50;99.90
9482;DHT22;4779;48.062;11.672;2023-04-24T13:52:24;12.30;99.90
9482;DHT22;4779;48.062;11.672;2023-04-24T13:54:51;12.00;99.90
9482;DHT22;4779;48.062;11.672;2023-04-24T13:57:18;11.80;99.90
9482;DHT22;4779;48.062;11.672;2023-04-24T13:59:45;11.60;99.90
9482;DHT22;4779;48.062;11.672;2023-04-24T14:02:14;11.50;99.90
9482;DHT22;4779;48.062;11.672;2023-04-24T14:04:40;11.60;99.90
9482;DHT22;4779;48.062;11.672;2023-04-24T14:07:07;11.70;99.90
9482;DHT22;4779;48.062;11.672;2023-04-24T14:09:34;11.80;99.90
9482;DHT22;4779;48.062;11.672;2023-04-24T14:12:01;12.10;99.90
9482;DHT22;4779;48.062;11.672;2023-04-24T14:14:29;12.30;99.90
9482;DHT22;4779;48.062;11.672;2023-04-24T14:16:56;12.50;99.90
9482;DHT22;4779;48.062;11.672;2023-04-24T14:19:25;12.70;99.90
9482;DHT22;4779;48.062;11.672;2023-04-24T14:21:52;12.90;99.90
9482;DHT22;4779;48.062;11.672;2023-04-24T14:24:19;13.20;99.90
9482;DHT22;4779;48.062;11.672;2023-04-24T14:26:46;13.40;99.90
9482;DHT22;4779;48.062;11.672;2023-04-24T14:29:13;13.70;99.90
9482;DHT22;4779;48.062;11.672;2023-04-24T14:31:40;13.70;99.90
9482;DHT22;4779;48.062;11.672;2023-04-24T14:34:07;13.80;99.90
9482;DHT22;4779;48.062;11.672;2023-04-24T14:36:36;13.60;99.90
9482;DHT22;4779;48.062;11.672;2023-04-24T14:39:03;13.30;99.90
9482;DHT22;4779;48.062;11.672;2023-04-24T14:41:31;13.10;99.90
9482;DHT22;4779;48.062;11.672;2023-04-24T14:44:01;12.70;99.90
9482;DHT22;4779;48.062;11.672;2023-04-24T14:46:28;12.50;99.90
9482;DHT22;4779;48.062;11.672;2023-04-24T14:48:55;12.40;99.90
9482;DHT22;4779;48.062;11.672;2023-04-24T14:51:23;12.50;99.90
9482;DHT22;4779;48.062;11.672;2023-04-24T14:53:52;12.50;99.90
9482;DHT22;4779;48.062;11.672;2023-04-24T14:56:19;12.50;99.90
9482;DHT22;4779;48.062;11.672;2023-04-24T14:58:45;12.60;99.90
9482;DHT22;4779;48.062;11.672;2023-04-24T15:01:13;12.70;99.90
9482;DHT22;4779;48.062;11.672;2023-04-24T15:03:40;12.60;99.90
9482;DHT22;4779;48.062;11.672;2023-04-24T15:06:07;12.60;99.90
9482;DHT22;4779;48.062;11.672;2023-04-24T15:08:34;12.60;99.90
9482;DHT22;4779;48.062;11.672;2023-04-24T15:11:02;12.60;99.90
9482;DHT22;4779;48.062;11.672;2023-04-24T15:13:29;12.80;99.90
9482;DHT22;4779;48.062;11.672;2023-04-24T15:15:56;13.00;99.90
9482;DHT22;4779;48.062;11.672;2023-04-24T15:18:23;13.30;99.80
9482;DHT22;4779;48.062;11.672;2023-04-24T15:20:50;13.60;99.90
9482;DHT22;4779;48.062;11.672;2023-04-24T15:23:17;13.70;98.90
9482;DHT22;4779;48.062;11.672;2023-04-24T15:25:44;13.80;98.10
9482;DHT22;4779;48.062;11.672;2023-04-24T15:28:12;13.70;98.30
9482;DHT22;4779;48.062;11.672;2023-04-24T15:30:39;13.80;99.60
9482;DHT22;4779;48.062;11.672;2023-04-24T15:33:06;13.80;97.80
9482;DHT22;4779;48.062;11.672;2023-04-24T15:35:33;13.60;98.10
9482;DHT22;4779;48.062;11.672;2023-04-24T15:38:01;13.30;97.50
9482;DHT22;4779;48.062;11.672;2023-04-24T15:40:28;12.90;96.80
9482;DHT22;4779;48.062;11.672;2023-04-24T15:42:54;12.70;97.40
9482;DHT22;4779;48.062;11.672;2023-04-24T15:45:23;12.60;97.00
9482;DHT22;4779;48.062;11.672;2023-04-24T15:47:51;12.50;96.00
9482;DHT22;4779;48.062;11.672;2023-04-24T15:50:18;12.70;97.20
9482;DHT22;4779;48.062;11.672;2023-04-24T15:52:47;12.90;97.00
9482;DHT22;4779;48.062;11.672;2023-04-24T15:55:13;13.00;96.50
9482;DHT22;4779;48.062;11.672;2023-04-24T15:57:41;13.10;96.10
9482;DHT22;4779;48.062;11.672;2023-04-24T16:00:09;13.00;97.20
9482;DHT22;4779;48.062;11.672;2023-04-24T16:02:37;13.00;97.00
9482;DHT22;4779;48.062;11.672;2023-04-24T16:05:05;12.90;97.00
9482;DHT22;4779;48.062;11.672;2023-04-24T16:07:33;12.70;96.40
9482;DHT22;4779;48.062;11.672;2023-04-24T16:10:00;12.50;95.90
9482;DHT22;4779;48.062;11.672;2023-04-24T16:12:27;12.30;95.70
9482;DHT22;4779;48.062;11.672;2023-04-24T16:14:54;12.20;96.70
9482;DHT22;4779;48.062;11.672;2023-04-24T16:17:21;12.10;96.70
9482;DHT22;4779;48.062;11.672;2023-04-24T16:19:50;12.20;96.30
9482;DHT22;4779;48.062;11.672;2023-04-24T16:22:16;12.20;97.70
9482;DHT22;4779;48.062;11.672;2023-04-24T16:24:43;12.20;96.50